Time;durP1;ratioP1;P1;durP2;ratioP2;P2;SDS_P1;SDS_P2;PMS_P1;PMS_P2;Temp;Humidity;BMP_temperature;BMP_pressure;BME280_temperature;BME280_humidity;BME280_pressure;Samples;Min_cycle;Max_cycle;Signal;HPM_P1;HPM_P2
2024/03/23 00:01:20;;;;;;;36.08;13.35;;;;;;;;;;6166551;28;20589;-85
2024/03/23 00:04:22;;;;;;;29.13;12.57;;;;;;;;;;6169055;28;20302;-85
2024/03/23 00:07:24;;;;;;;31.23;12.40;;;;;;;;;;6155006;28;20053;-85
2024/03/23 00:10:26;;;;;;;33.58;13.95;;;;;;;;;;6157811;28;20077;-85
2024/03/23 00:13:27;;;;;;;34.58;15.07;;;;;;;;;;6155787;28;20050;-85
2024/03/23 00:16:30;;;;;;;33.35;13.45;;;;;;;;;;6168871;28;20144;-84
2024/03/23 00:19:32;;;;;;;36.25;14.73;;;;;;;;;;6175822;28;20046;-85
2024/03/23 00:22:34;;;;;;;33.33;14.07;;;;;;;;;;6165837;28;20503;-83
2024/03/23 00:25:37;;;;;;;30.90;14.13;;;;;;;;;;6155277;28;20042;-82
2024/03/23 00:28:38;;;;;;;31.98;12.98;;;;;;;;;;6185005;28;20051;-83
2024/03/23 00:31:40;;;;;;;29.20;12.15;;;;;;;;;;6150775;28;20097;-84
2024/03/23 00:34:42;;;;;;;31.38;12.10;;;;;;;;;;6173274;28;20054;-83
2024/03/23 00:37:44;;;;;;;34.85;13.57;;;;;;;;;;6136386;28;20507;-83
2024/03/23 00:40:46;;;;;;;36.42;12.95;;;;;;;;;;6137130;28;20076;-84
2024/03/23 00:43:48;;;;;;;30.17;12.43;;;;;;;;;;6169239;28;20051;-83
2024/03/23 00:46:49;;;;;;;28.13;11.13;;;;;;;;;;6171200;28;20054;-84
2024/03/23 00:49:51;;;;;;;27.52;11.90;;;;;;;;;;6169364;28;20486;-83
2024/03/23 00:52:53;;;;;;;34.42;12.75;;;;;;;;;;6148409;28;20052;-83
2024/03/23 00:55:54;;;;;;;35.25;13.50;;;;;;;;;;6155829;28;20042;-83
2024/03/23 00:58:54;;;;;;;35.55;13.35;;;;;;;;;;6169654;28;20097;-83
2024/03/23 01:01:55;;;;;;;34.17;12.40;;;;;;;;;;6164381;28;20145;-83
2024/03/23 01:04:56;;;;;;;33.92;12.82;;;;;;;;;;6152798;28;20133;-83
2024/03/23 01:07:59;;;;;;;30.80;13.00;;;;;;;;;;6155675;28;20084;-83
2024/03/23 01:11:00;;;;;;;32.83;12.70;;;;;;;;;;6170341;28;20065;-83
2024/03/23 01:14:01;;;;;;;30.85;12.25;;;;;;;;;;6172157;28;20049;-83
2024/03/23 01:17:02;;;;;;;31.23;12.75;;;;;;;;;;6168303;28;20041;-83
2024/03/23 01:20:04;;;;;;;27.77;12.77;;;;;;;;;;6168748;28;20522;-82
2024/03/23 01:23:04;;;;;;;34.28;13.38;;;;;;;;;;6165824;28;20039;-83
2024/03/23 01:26:05;;;;;;;32.90;13.80;;;;;;;;;;6164693;28;20101;-83
2024/03/23 01:29:06;;;;;;;34.75;13.57;;;;;;;;;;6182839;28;20070;-82
2024/03/23 01:32:06;;;;;;;33.88;13.43;;;;;;;;;;6189687;28;20053;-82
2024/03/23 01:35:08;;;;;;;34.03;13.80;;;;;;;;;;6175831;28;20527;-83
2024/03/23 01:38:08;;;;;;;30.45;12.88;;;;;;;;;;6168985;28;20049;-83
2024/03/23 01:41:09;;;;;;;38.13;14.52;;;;;;;;;;6187950;28;20039;-83
2024/03/23 01:44:10;;;;;;;39.40;13.90;;;;;;;;;;6169177;28;20053;-83
2024/03/23 01:47:12;;;;;;;34.60;14.07;;;;;;;;;;6149390;28;20488;-83
2024/03/23 01:50:13;;;;;;;37.92;14.18;;;;;;;;;;6165684;28;20042;-83
2024/03/23 01:53:17;;;;;;;32.53;12.68;;;;;;;;;;6162171;28;20034;-83
2024/03/23 01:56:17;;;;;;;33.83;13.00;;;;;;;;;;6170862;28;20563;-83
2024/03/23 01:59:18;;;;;;;30.20;12.40;;;;;;;;;;6188213;28;20085;-83
2024/03/23 02:02:19;;;;;;;30.95;12.25;;;;;;;;;;6154459;28;20528;-83
2024/03/23 02:05:20;;;;;;;30.45;13.13;;;;;;;;;;6152299;28;20050;-83
2024/03/23 02:08:22;;;;;;;35.83;13.80;;;;;;;;;;6164500;28;20055;-83
2024/03/23 02:11:22;;;;;;;31.90;12.80;;;;;;;;;;6178531;28;20043;-83
2024/03/23 02:14:23;;;;;;;31.58;12.38;;;;;;;;;;6168981;28;20053;-82
2024/03/23 02:17:24;;;;;;;32.17;12.80;;;;;;;;;;6145874;28;20046;-83
2024/03/23 02:20:25;;;;;;;29.90;12.65;;;;;;;;;;6155589;28;20042;-83
2024/03/23 02:23:25;;;;;;;28.48;13.05;;;;;;;;;;6165618;28;20129;-82
2024/03/23 02:26:26;;;;;;;31.10;13.32;;;;;;;;;;6181907;28;20125;-83
2024/03/23 02:29:27;;;;;;;35.58;14.38;;;;;;;;;;6155456;28;20622;-82
2024/03/23 02:32:28;;;;;;;40.28;13.38;;;;;;;;;;6173174;28;20050;-83
2024/03/23 02:35:28;;;;;;;34.88;13.68;;;;;;;;;;6181456;28;20121;-83
2024/03/23 02:38:29;;;;;;;35.47;13.73;;;;;;;;;;6164106;28;20570;-83
2024/03/23 02:41:30;;;;;;;35.05;13.60;;;;;;;;;;6184130;28;20050;-83
2024/03/23 02:44:30;;;;;;;38.47;12.52;;;;;;;;;;6173621;28;20141;-82
2024/03/23 02:47:31;;;;;;;32.63;13.60;;;;;;;;;;6174380;28;20094;-82
2024/03/23 02:50:32;;;;;;;41.85;14.40;;;;;;;;;;6185415;28;20053;-82
2024/03/23 02:53:33;;;;;;;29.75;10.23;;;;;;;;;;6170129;28;20056;-82
2024/03/23 02:56:34;;;;;;;24.88;9.98;;;;;;;;;;6172648;28;20046;-82
2024/03/23 02:59:35;;;;;;;20.27;8.57;;;;;;;;;;6172866;28;20448;-82
2024/03/23 03:02:37;;;;;;;17.95;6.00;;;;;;;;;;6214672;28;20050;-82
2024/03/23 03:05:37;;;;;;;10.93;3.97;;;;;;;;;;6182264;28;20056;-82
2024/03/23 03:08:39;;;;;;;6.72;2.97;;;;;;;;;;6185126;28;20046;-84
2024/03/23 03:11:39;;;;;;;4.05;1.88;;;;;;;;;;6168531;28;20057;-85
2024/03/23 03:14:40;;;;;;;5.80;2.03;;;;;;;;;;6181439;28;20499;-84
2024/03/23 03:17:41;;;;;;;3.72;1.73;;;;;;;;;;6162833;28;20050;-84
2024/03/23 03:20:41;;;;;;;2.17;1.20;;;;;;;;;;6168086;28;20133;-84
2024/03/23 03:23:42;;;;;;;3.15;1.10;;;;;;;;;;6155018;28;20700;-86
2024/03/23 03:26:43;;;;;;;2.22;0.95;;;;;;;;;;6194474;28;20461;-84
2024/03/23 03:29:44;;;;;;;1.10;0.60;;;;;;;;;;6177878;28;20034;-83
2024/03/23 03:32:45;;;;;;;1.45;1.05;;;;;;;;;;6176064;28;20069;-84
2024/03/23 03:35:45;;;;;;;0.70;0.52;;;;;;;;;;6188715;28;20415;-84
2024/03/23 03:38:46;;;;;;;1.52;0.80;;;;;;;;;;6185345;28;20439;-84
2024/03/23 03:41:47;;;;;;;0.82;0.52;;;;;;;;;;6181327;28;20053;-84
2024/03/23 03:44:48;;;;;;;1.73;0.65;;;;;;;;;;6178148;28;20046;-84
2024/03/23 03:47:48;;;;;;;1.45;0.77;;;;;;;;;;6182361;28;20078;-84
2024/03/23 03:50:49;;;;;;;0.73;0.50;;;;;;;;;;6163686;28;21317;-86
2024/03/23 03:53:50;;;;;;;1.13;0.50;;;;;;;;;;6178280;28;20058;-84
2024/03/23 03:56:50;;;;;;;0.68;0.55;;;;;;;;;;6164492;28;20046;-84
2024/03/23 03:59:51;;;;;;;0.93;0.50;;;;;;;;;;6181070;28;20181;-83
2024/03/23 04:02:52;;;;;;;1.17;0.50;;;;;;;;;;6165147;28;20066;-87
2024/03/23 04:05:55;;;;;;;0.90;0.50;;;;;;;;;;6181965;28;20602;-85
2024/03/23 04:08:56;;;;;;;0.98;0.40;;;;;;;;;;6164547;28;20109;-84
2024/03/23 04:11:57;;;;;;;1.90;0.70;;;;;;;;;;6163680;28;20459;-84
2024/03/23 04:14:57;;;;;;;1.05;0.52;;;;;;;;;;6163785;28;20058;-84
2024/03/23 04:17:58;;;;;;;0.68;0.68;;;;;;;;;;6181487;28;20049;-85
2024/03/23 04:20:59;;;;;;;0.73;0.50;;;;;;;;;;6163734;28;20047;-85
2024/03/23 04:23:59;;;;;;;1.58;0.50;;;;;;;;;;6176670;28;20126;-85
2024/03/23 04:27:00;;;;;;;1.75;0.47;;;;;;;;;;6181399;28;20050;-86
2024/03/23 04:30:03;;;;;;;1.23;0.50;;;;;;;;;;6166122;28;20094;-85
2024/03/23 04:33:05;;;;;;;1.40;0.77;;;;;;;;;;6168562;28;20120;-85
2024/03/23 04:36:07;;;;;;;1.75;0.68;;;;;;;;;;6192425;28;20053;-88
2024/03/23 04:39:08;;;;;;;0.57;0.47;;;;;;;;;;6198531;28;20066;-87
2024/03/23 04:42:09;;;;;;;0.68;0.40;;;;;;;;;;6179763;28;20048;-85
2024/03/23 04:45:10;;;;;;;0.57;0.40;;;;;;;;;;6187997;28;20042;-86
2024/03/23 04:48:11;;;;;;;0.75;0.40;;;;;;;;;;6194052;28;20050;-85
2024/03/23 04:51:24;;;;;;;2.00;0.38;;;;;;;;;;6149730;28;20121;-86
2024/03/23 04:54:25;;;;;;;1.08;0.20;;;;;;;;;;6172211;28;20049;-86
2024/03/23 04:57:26;;;;;;;0.98;0.20;;;;;;;;;;6190209;28;20125;-86
2024/03/23 05:00:27;;;;;;;1.15;0.20;;;;;;;;;;6155918;28;20038;-87
2024/03/23 05:03:29;;;;;;;0.20;0.20;;;;;;;;;;6174858;28;20074;-85
2024/03/23 05:06:31;;;;;;;0.45;0.25;;;;;;;;;;6173442;28;20074;-87
2024/03/23 05:09:33;;;;;;;1.07;0.40;;;;;;;;;;6172932;28;20057;-88
2024/03/23 05:12:33;;;;;;;1.83;0.30;;;;;;;;;;6178109;28;20050;-86
2024/03/23 05:15:34;;;;;;;0.40;0.32;;;;;;;;;;6172977;28;20416;-85
2024/03/23 05:18:35;;;;;;;0.20;0.20;;;;;;;;;;6155365;28;20056;-85
2024/03/23 05:21:36;;;;;;;0.13;0.13;;;;;;;;;;6177280;28;20048;-88
2024/03/23 05:24:37;;;;;;;0.70;0.40;;;;;;;;;;6173807;28;20175;-84
2024/03/23 05:27:38;;;;;;;0.30;0.22;;;;;;;;;;6169115;28;20491;-84
2024/03/23 05:30:39;;;;;;;1.05;0.40;;;;;;;;;;6170340;28;20070;-84
2024/03/23 05:33:40;;;;;;;2.17;0.40;;;;;;;;;;6155466;28;20056;-84
2024/03/23 05:36:41;;;;;;;0.60;0.43;;;;;;;;;;6150599;28;20117;-83
2024/03/23 05:39:42;;;;;;;0.90;0.47;;;;;;;;;;6166946;28;20058;-83
2024/03/23 05:42:43;;;;;;;2.63;0.65;;;;;;;;;;6155301;28;20065;-83
2024/03/23 05:45:43;;;;;;;2.30;0.60;;;;;;;;;;6172555;28;20050;-83
2024/03/23 05:48:44;;;;;;;0.90;0.60;;;;;;;;;;6152385;28;20046;-83
2024/03/23 05:51:45;;;;;;;0.93;0.50;;;;;;;;;;6153137;28;20801;-83
2024/03/23 05:54:46;;;;;;;0.40;0.40;;;;;;;;;;6174069;28;20054;-83
2024/03/23 05:57:47;;;;;;;0.57;0.43;;;;;;;;;;6160444;28;20052;-83
2024/03/23 06:00:47;;;;;;;2.00;0.60;;;;;;;;;;6173563;28;20070;-83
2024/03/23 06:03:48;;;;;;;1.08;0.43;;;;;;;;;;6166857;28;20511;-83
2024/03/23 06:06:50;;;;;;;4.25;0.80;;;;;;;;;;6165910;28;20038;-83
2024/03/23 06:09:50;;;;;;;2.33;0.65;;;;;;;;;;6176315;28;20054;-83
2024/03/23 06:12:55;;;;;;;2.83;0.68;;;;;;;;;;6157334;28;20049;-83
2024/03/23 06:15:56;;;;;;;1.27;0.82;;;;;;;;;;6152835;28;20521;-83
2024/03/23 06:18:56;;;;;;;2.35;0.80;;;;;;;;;;6199673;28;20034;-83
2024/03/23 06:21:57;;;;;;;1.08;0.75;;;;;;;;;;6189330;28;20112;-83
2024/03/23 06:24:58;;;;;;;1.75;1.00;;;;;;;;;;6168643;28;20043;-83
2024/03/23 06:27:59;;;;;;;1.92;0.55;;;;;;;;;;6173843;28;20150;-83
2024/03/23 06:31:00;;;;;;;3.30;1.02;;;;;;;;;;6171675;28;20069;-83
2024/03/23 06:34:01;;;;;;;5.13;0.93;;;;;;;;;;6173352;28;20042;-83
2024/03/23 06:37:03;;;;;;;48.53;23.52;;;;;;;;;;6158190;28;20042;-83
2024/03/23 06:40:06;;;;;;;1.92;1.27;;;;;;;;;;6183278;28;20046;-84
2024/03/23 06:43:07;;;;;;;6.72;1.92;;;;;;;;;;6174964;28;20846;-83
2024/03/23 06:46:08;;;;;;;19.65;6.57;;;;;;;;;;6163641;28;20077;-84
2024/03/23 06:49:09;;;;;;;54.22;21.08;;;;;;;;;;6166327;28;21178;-86
2024/03/23 06:52:09;;;;;;;3.70;1.80;;;;;;;;;;6148826;28;20053;-85
2024/03/23 06:55:10;;;;;;;5.63;1.42;;;;;;;;;;6186635;28;20106;-85
2024/03/23 06:58:11;;;;;;;7.18;3.67;;;;;;;;;;6155754;28;20049;-86
2024/03/23 07:01:12;;;;;;;6.45;1.67;;;;;;;;;;6170922;28;20142;-84
2024/03/23 07:04:13;;;;;;;11.27;5.50;;;;;;;;;;6151049;28;20758;-84
2024/03/23 07:07:13;;;;;;;7.30;1.42;;;;;;;;;;6168875;28;20050;-87
2024/03/23 07:10:14;;;;;;;13.45;5.75;;;;;;;;;;6179589;28;20045;-84
2024/03/23 07:13:15;;;;;;;7.28;2.80;;;;;;;;;;6188525;28;20070;-84
2024/03/23 07:16:16;;;;;;;5.80;2.58;;;;;;;;;;6171952;28;20042;-87
2024/03/23 07:19:17;;;;;;;7.88;2.90;;;;;;;;;;6176438;28;20104;-85
2024/03/23 07:22:18;;;;;;;7.18;3.22;;;;;;;;;;6205427;28;20050;-87
2024/03/23 07:25:21;;;;;;;10.90;3.45;;;;;;;;;;6215065;28;20049;-87
2024/03/23 07:28:22;;;;;;;7.05;3.65;;;;;;;;;;6173850;28;20046;-85
2024/03/23 07:31:24;;;;;;;10.63;3.42;;;;;;;;;;6169726;28;20050;-89
2024/03/23 07:34:25;;;;;;;10.43;4.10;;;;;;;;;;6180226;28;20692;-87
2024/03/23 07:37:26;;;;;;;6.28;3.88;;;;;;;;;;6196930;28;20174;-86
2024/03/23 07:40:27;;;;;;;8.82;4.15;;;;;;;;;;6173666;28;20069;-85
2024/03/23 07:43:28;;;;;;;8.43;3.72;;;;;;;;;;6189049;28;20387;-82
2024/03/23 07:46:29;;;;;;;8.23;4.00;;;;;;;;;;6176611;28;20860;-84
2024/03/23 07:49:29;;;;;;;9.38;3.58;;;;;;;;;;6153729;28;20049;-84
2024/03/23 07:52:30;;;;;;;9.20;3.70;;;;;;;;;;6166232;28;20051;-88
2024/03/23 07:55:31;;;;;;;6.38;3.78;;;;;;;;;;6191088;28;20600;-87
2024/03/23 07:58:32;;;;;;;11.20;4.28;;;;;;;;;;6196320;28;20117;-85
2024/03/23 08:01:33;;;;;;;9.10;4.50;;;;;;;;;;6178823;28;20082;-86
2024/03/23 08:04:34;;;;;;;9.02;3.92;;;;;;;;;;6176599;28;20057;-86
2024/03/23 08:07:35;;;;;;;10.27;4.70;;;;;;;;;;6183404;28;20497;-85
2024/03/23 08:10:35;;;;;;;13.98;4.65;;;;;;;;;;6187667;28;20061;-85
2024/03/23 08:13:39;;;;;;;12.68;4.55;;;;;;;;;;6179547;28;20049;-87
2024/03/23 08:16:40;;;;;;;;;;;;;;;;;;6162902;28;20412;-85
2024/03/23 08:19:41;;;;;;;7.03;3.58;;;;;;;;;;6165584;28;20313;-86
2024/03/23 08:22:42;;;;;;;7.75;3.33;;;;;;;;;;6155012;28;20052;-86
2024/03/23 08:25:43;;;;;;;11.13;4.47;;;;;;;;;;6155658;28;20078;-86
2024/03/23 08:28:43;;;;;;;7.68;3.70;;;;;;;;;;6152995;28;20053;-86
2024/03/23 08:31:44;;;;;;;11.57;4.13;;;;;;;;;;6149913;28;20047;-86
2024/03/23 08:34:45;;;;;;;8.15;3.40;;;;;;;;;;6153895;28;20058;-87
2024/03/23 08:37:46;;;;;;;14.75;4.35;;;;;;;;;;6145303;28;20518;-86
2024/03/23 08:40:47;;;;;;;15.25;4.20;;;;;;;;;;6169752;28;20062;-86
2024/03/23 08:43:48;;;;;;;9.38;3.70;;;;;;;;;;6172522;28;20041;-87
2024/03/23 08:46:48;;;;;;;12.98;3.97;;;;;;;;;;6173748;28;20490;-89
2024/03/23 08:49:51;;;;;;;8.30;3.50;;;;;;;;;;6146861;28;20047;-89
2024/03/23 08:52:52;;;;;;;9.93;4.00;;;;;;;;;;6148012;28;20073;-89
2024/03/23 08:56:01;;;;;;;;;;;;;;;;;;6153472;28;20042;-88
2024/03/23 08:59:03;;;;;;;7.22;3.40;;;;;;;;;;6162823;28;19922;-90
2024/03/23 09:02:04;;;;;;;6.45;2.83;;;;;;;;;;6144445;28;20050;-89
2024/03/23 09:05:05;;;;;;;9.93;2.85;;;;;;;;;;6167264;28;20086;-89
2024/03/23 09:08:06;;;;;;;15.77;3.35;;;;;;;;;;6165804;28;20049;-87
2024/03/23 09:11:09;;;;;;;7.35;2.28;;;;;;;;;;6152184;28;20634;-87
2024/03/23 09:14:10;;;;;;;7.93;2.97;;;;;;;;;;6167373;28;20045;-86
2024/03/23 09:17:11;;;;;;;7.15;2.30;;;;;;;;;;6166346;28;20042;-87
2024/03/23 09:20:12;;;;;;;8.30;2.30;;;;;;;;;;6190164;28;20033;-86
2024/03/23 09:23:13;;;;;;;5.20;1.88;;;;;;;;;;6198328;28;20140;-87
2024/03/23 09:26:14;;;;;;;7.07;2.42;;;;;;;;;;6150973;28;20133;-86
2024/03/23 09:29:15;;;;;;;12.40;2.10;;;;;;;;;;6174002;28;20065;-86
2024/03/23 09:32:16;;;;;;;7.95;2.20;;;;;;;;;;6188556;28;20050;-88
2024/03/23 09:35:16;;;;;;;9.13;2.20;;;;;;;;;;6178487;28;20048;-86
2024/03/23 09:38:17;;;;;;;6.97;2.00;;;;;;;;;;6167250;28;20093;-86
2024/03/23 09:41:18;;;;;;;3.90;1.88;;;;;;;;;;6152501;28;20046;-86
2024/03/23 09:44:19;;;;;;;3.13;1.50;;;;;;;;;;6151161;28;20107;-86
2024/03/23 09:47:20;;;;;;;4.18;1.52;;;;;;;;;;6180167;28;20054;-86
2024/03/23 09:50:22;;;;;;;5.57;1.90;;;;;;;;;;6165398;28;20523;-86
2024/03/23 09:53:23;;;;;;;4.35;1.80;;;;;;;;;;6171562;28;20042;-88
2024/03/23 09:56:24;;;;;;;9.85;2.55;;;;;;;;;;6165821;28;20088;-86
2024/03/23 09:59:26;;;;;;;7.43;1.50;;;;;;;;;;6185676;28;20540;-85
2024/03/23 10:02:28;;;;;;;13.13;5.10;;;;;;;;;;6191456;28;20050;-86
2024/03/23 10:05:32;;;;;;;9.70;5.30;;;;;;;;;;6209116;28;20049;-86
2024/03/23 10:08:33;;;;;;;7.13;3.65;;;;;;;;;;6192753;28;20126;-85
2024/03/23 10:11:34;;;;;;;11.38;6.10;;;;;;;;;;6182668;28;20066;-85
2024/03/23 10:14:35;;;;;;;33.65;14.18;;;;;;;;;;6186243;28;20062;-85
2024/03/23 10:17:37;;;;;;;57.63;24.23;;;;;;;;;;6194414;28;20061;-86
2024/03/23 10:20:38;;;;;;;9.17;2.60;;;;;;;;;;6172311;28;21534;-86
2024/03/23 10:23:41;;;;;;;6.85;2.55;;;;;;;;;;6171560;28;20065;-86
2024/03/23 10:26:41;;;;;;;7.97;3.60;;;;;;;;;;6154933;28;20084;-87
2024/03/23 10:29:42;;;;;;;11.27;2.55;;;;;;;;;;6167295;28;20533;-87
2024/03/23 10:32:43;;;;;;;19.85;7.22;;;;;;;;;;6157531;28;20043;-86
2024/03/23 10:35:46;;;;;;;19.45;8.75;;;;;;;;;;6174636;28;20250;-86
2024/03/23 10:38:47;;;;;;;;;;;;;;;;;;6189722;28;20130;-87
2024/03/23 10:41:50;;;;;;;5.35;2.72;;;;;;;;;;6197536;28;19976;-87
2024/03/23 10:44:53;;;;;;;4.70;1.35;;;;;;;;;;6172342;28;20176;-87
2024/03/23 10:47:54;;;;;;;5.50;2.17;;;;;;;;;;6172040;28;20042;-87
2024/03/23 10:50:55;;;;;;;6.35;1.60;;;;;;;;;;6171362;28;20050;-88
2024/03/23 10:53:57;;;;;;;5.30;1.35;;;;;;;;;;6169972;28;20057;-87
2024/03/23 10:57:07;;;;;;;5.90;1.40;;;;;;;;;;6155331;28;20188;-87
2024/03/23 11:00:10;;;;;;;1.65;0.77;;;;;;;;;;6173272;28;20045;-86
2024/03/23 11:03:38;;;;;;;2.80;1.38;;;;;;;;;;6174347;28;20050;-85
2024/03/23 11:06:41;;;;;;;2.08;1.08;;;;;;;;;;6196717;28;20103;-85
2024/03/23 11:09:45;;;;;;;1.95;0.93;;;;;;;;;;6187088;28;20046;-85
2024/03/23 11:12:45;;;;;;;4.20;1.05;;;;;;;;;;6149292;28;20100;-85
2024/03/23 11:15:46;;;;;;;1.77;0.90;;;;;;;;;;6171187;28;20397;-85
2024/03/23 11:18:47;;;;;;;6.18;1.60;;;;;;;;;;6169587;28;20050;-85
2024/03/23 11:21:55;;;;;;;3.25;1.10;;;;;;;;;;6172699;28;20169;-85
2024/03/23 11:24:56;;;;;;;5.80;1.67;;;;;;;;;;6169053;28;20046;-85
2024/03/23 11:27:58;;;;;;;12.93;6.35;;;;;;;;;;6165688;28;20074;-86
2024/03/23 11:30:59;;;;;;;24.90;11.07;;;;;;;;;;6167715;28;20488;-85
2024/03/23 11:34:04;;;;;;;2.92;1.48;;;;;;;;;;6172403;28;20050;-85
2024/03/23 11:37:06;;;;;;;5.47;1.05;;;;;;;;;;6181938;28;20533;-85
2024/03/23 11:40:19;;;;;;;7.32;2.90;;;;;;;;;;6165637;28;20049;-84
2024/03/23 11:43:22;;;;;;;5.40;1.60;;;;;;;;;;6171156;28;20057;-84
2024/03/23 11:46:24;;;;;;;12.13;4.80;;;;;;;;;;6183228;28;20049;-85
2024/03/23 11:49:29;;;;;;;10.43;4.97;;;;;;;;;;6165972;28;20123;-86
2024/03/23 11:52:30;;;;;;;28.67;11.77;;;;;;;;;;6152677;28;20057;-84
2024/03/23 11:55:38;;;;;;;22.55;7.50;;;;;;;;;;6170470;28;20104;-86
2024/03/23 11:58:39;;;;;;;20.83;9.27;;;;;;;;;;6182163;28;20057;-86
2024/03/23 12:01:40;;;;;;;6.50;1.70;;;;;;;;;;6170926;28;20045;-86
2024/03/23 12:04:42;;;;;;;3.00;1.60;;;;;;;;;;6151062;28;20451;-86
2024/03/23 12:07:42;;;;;;;16.48;5.30;;;;;;;;;;6145812;28;20045;-86
2024/03/23 12:11:03;;;;;;;7.25;3.08;;;;;;;;;;6165223;28;20050;-85
2024/03/23 12:14:05;;;;;;;4.03;1.60;;;;;;;;;;6150969;28;20930;-85
2024/03/23 12:17:13;;;;;;;3.33;0.93;;;;;;;;;;6186897;28;20529;-85
2024/03/23 12:20:14;;;;;;;3.47;0.90;;;;;;;;;;6174574;28;20056;-86
2024/03/23 12:23:15;;;;;;;3.83;0.88;;;;;;;;;;6176680;28;20050;-85
2024/03/23 12:26:18;;;;;;;2.03;1.13;;;;;;;;;;6150620;28;20047;-86
2024/03/23 12:29:19;;;;;;;0.68;0.45;;;;;;;;;;6147256;28;20499;-87
2024/03/23 12:32:20;;;;;;;2.70;0.82;;;;;;;;;;6180259;28;20034;-86
2024/03/23 12:35:21;;;;;;;1.20;0.35;;;;;;;;;;6151520;28;20618;-85
2024/03/23 12:38:22;;;;;;;10.85;4.40;;;;;;;;;;6163892;28;20042;-85
2024/03/23 12:41:23;;;;;;;2.80;0.70;;;;;;;;;;6186330;28;20108;-85
2024/03/23 12:44:24;;;;;;;5.30;2.38;;;;;;;;;;6166519;28;20782;-84
2024/03/23 12:47:24;;;;;;;5.38;1.63;;;;;;;;;;6171041;28;20121;-85
2024/03/23 12:50:25;;;;;;;4.50;2.15;;;;;;;;;;6168249;28;20042;-85
2024/03/23 12:53:26;;;;;;;18.52;8.27;;;;;;;;;;6180458;28;20069;-85
2024/03/23 12:56:30;;;;;;;3.55;1.20;;;;;;;;;;6184095;28;20509;-85
2024/03/23 12:59:31;;;;;;;2.40;0.90;;;;;;;;;;6198132;28;20065;-85
2024/03/23 13:02:34;;;;;;;5.47;1.83;;;;;;;;;;6150741;28;20066;-85
2024/03/23 13:05:35;;;;;;;2.53;1.20;;;;;;;;;;6183701;28;20067;-87
2024/03/23 13:08:36;;;;;;;4.93;1.33;;;;;;;;;;6194116;28;20050;-86
2024/03/23 13:11:37;;;;;;;2.85;1.30;;;;;;;;;;6165964;28;20053;-86
2024/03/23 13:14:39;;;;;;;2.92;1.55;;;;;;;;;;6172657;28;20456;-86
2024/03/23 13:17:40;;;;;;;2.33;1.63;;;;;;;;;;6182871;28;20387;-86
2024/03/23 13:20:40;;;;;;;3.08;1.50;;;;;;;;;;6184238;28;20049;-86
2024/03/23 13:23:42;;;;;;;1.98;1.27;;;;;;;;;;6199905;28;20038;-86
2024/03/23 13:26:43;;;;;;;9.00;3.42;;;;;;;;;;6181254;28;20042;-85
2024/03/23 13:29:45;;;;;;;12.57;4.70;;;;;;;;;;6195737;28;20112;-85
2024/03/23 13:32:46;;;;;;;4.75;2.33;;;;;;;;;;6181164;28;20137;-86
2024/03/23 13:35:55;;;;;;;7.00;2.28;;;;;;;;;;6206427;28;20050;-85
2024/03/23 13:38:56;;;;;;;46.65;17.67;;;;;;;;;;6209490;28;20041;-85
2024/03/23 13:41:56;;;;;;;36.28;12.63;;;;;;;;;;6172065;28;20133;-83
2024/03/23 13:44:57;;;;;;;16.40;7.63;;;;;;;;;;6155637;28;20061;-83
2024/03/23 13:47:58;;;;;;;6.63;2.92;;;;;;;;;;6173260;28;20141;-83
2024/03/23 13:51:04;;;;;;;7.40;2.95;;;;;;;;;;6169479;28;20458;-87
2024/03/23 13:54:04;;;;;;;8.45;3.75;;;;;;;;;;6145272;28;20043;-86
2024/03/23 13:57:05;;;;;;;3.40;2.05;;;;;;;;;;6160283;28;20038;-85
2024/03/23 14:00:08;;;;;;;9.27;3.65;;;;;;;;;;6166556;28;20112;-86
2024/03/23 14:03:14;;;;;;;5.53;2.38;;;;;;;;;;6191070;28;20380;-85
2024/03/23 14:06:15;;;;;;;4.93;1.88;;;;;;;;;;6156416;28;20041;-86
2024/03/23 14:09:20;;;;;;;9.75;4.63;;;;;;;;;;6179029;28;20051;-85
2024/03/23 14:12:21;;;;;;;3.08;1.42;;;;;;;;;;6182655;28;20046;-85
2024/03/23 14:15:22;;;;;;;12.65;7.28;;;;;;;;;;6206881;28;20057;-86
2024/03/23 14:18:22;;;;;;;1.70;1.08;;;;;;;;;;6174026;28;20526;-85
2024/03/23 14:21:24;;;;;;;15.13;7.72;;;;;;;;;;6152995;28;20399;-85
2024/03/23 14:24:24;;;;;;;3.38;2.13;;;;;;;;;;6189083;28;20052;-85
2024/03/23 14:27:25;;;;;;;3.83;2.25;;;;;;;;;;6170610;28;20053;-85
2024/03/23 14:30:26;;;;;;;4.82;2.10;;;;;;;;;;6162053;28;20149;-85
2024/03/23 14:33:27;;;;;;;3.30;1.77;;;;;;;;;;6182136;28;20042;-85
2024/03/23 14:36:28;;;;;;;3.33;1.88;;;;;;;;;;6153619;28;20507;-86
2024/03/23 14:39:30;;;;;;;3.38;2.08;;;;;;;;;;6170690;28;20049;-86
2024/03/23 14:42:33;;;;;;;5.10;2.33;;;;;;;;;;6156801;28;20046;-85
2024/03/23 14:45:34;;;;;;;4.50;1.95;;;;;;;;;;6177093;28;20050;-84
2024/03/23 14:48:35;;;;;;;3.20;2.28;;;;;;;;;;6171415;28;20038;-82
2024/03/23 14:51:36;;;;;;;4.72;2.10;;;;;;;;;;6189127;28;20105;-83
2024/03/23 14:54:37;;;;;;;3.45;1.80;;;;;;;;;;6168342;28;20069;-84
2024/03/23 14:57:41;;;;;;;2.55;1.67;;;;;;;;;;6165728;28;20569;-86
2024/03/23 15:00:41;;;;;;;3.45;1.45;;;;;;;;;;6160933;28;20045;-84
2024/03/23 15:03:44;;;;;;;2.33;1.65;;;;;;;;;;6173935;28;20054;-84
2024/03/23 15:06:46;;;;;;;6.03;1.90;;;;;;;;;;6168944;28;20054;-84
2024/03/23 15:09:47;;;;;;;2.67;1.23;;;;;;;;;;6202675;28;20046;-85
2024/03/23 15:12:47;;;;;;;10.18;3.65;;;;;;;;;;6168615;28;20114;-84
2024/03/23 15:15:48;;;;;;;3.22;1.80;;;;;;;;;;6177546;28;20121;-85
2024/03/23 15:18:49;;;;;;;2.63;1.83;;;;;;;;;;6152965;28;20096;-86
2024/03/23 15:21:51;;;;;;;3.53;1.70;;;;;;;;;;6153161;28;20046;-84
2024/03/23 15:24:51;;;;;;;3.60;1.80;;;;;;;;;;6185477;28;20042;-87
2024/03/23 15:27:53;;;;;;;3.85;1.40;;;;;;;;;;6188167;28;20048;-86
2024/03/23 15:30:58;;;;;;;3.83;1.98;;;;;;;;;;6158844;28;20051;-87
2024/03/23 15:33:59;;;;;;;3.55;2.10;;;;;;;;;;6188889;28;20046;-88
2024/03/23 15:37:00;;;;;;;2.30;1.50;;;;;;;;;;6188650;28;20121;-87
2024/03/23 15:40:01;;;;;;;4.55;2.90;;;;;;;;;;6177967;28;20042;-86
2024/03/23 15:43:02;;;;;;;6.20;3.88;;;;;;;;;;6150889;28;20050;-86
2024/03/23 15:46:05;;;;;;;3.55;2.10;;;;;;;;;;6172967;28;20109;-85
2024/03/23 15:49:06;;;;;;;3.58;1.73;;;;;;;;;;6182973;28;20097;-85
2024/03/23 15:52:08;;;;;;;2.92;1.48;;;;;;;;;;6208355;28;20031;-85
2024/03/23 15:55:10;;;;;;;4.72;2.90;;;;;;;;;;6182680;28;20570;-87
2024/03/23 15:58:10;;;;;;;4.05;1.55;;;;;;;;;;6179608;28;20045;-86
2024/03/23 16:01:11;;;;;;;3.22;2.35;;;;;;;;;;6157197;28;20074;-84
2024/03/23 16:04:12;;;;;;;4.10;2.85;;;;;;;;;;6174049;28;20046;-85
2024/03/23 16:07:13;;;;;;;2.13;1.20;;;;;;;;;;6160509;28;20832;-84
2024/03/23 16:10:14;;;;;;;3.17;1.65;;;;;;;;;;6173080;28;20046;-83
2024/03/23 16:13:16;;;;;;;4.45;1.40;;;;;;;;;;6175412;28;20451;-84
2024/03/23 16:16:16;;;;;;;1.42;0.95;;;;;;;;;;6158145;28;20046;-83
2024/03/23 16:19:17;;;;;;;2.83;1.30;;;;;;;;;;6177759;28;21051;-84
2024/03/23 16:22:18;;;;;;;1.92;1.20;;;;;;;;;;6187652;28;20050;-85
2024/03/23 16:25:19;;;;;;;1.50;1.17;;;;;;;;;;6195918;28;20046;-85
2024/03/23 16:28:19;;;;;;;1.92;1.00;;;;;;;;;;6194041;28;20605;-86
2024/03/23 16:31:20;;;;;;;2.47;1.02;;;;;;;;;;6168022;28;20522;-86
2024/03/23 16:34:21;;;;;;;2.45;1.60;;;;;;;;;;6176281;28;20049;-86
2024/03/23 16:37:22;;;;;;;2.25;1.45;;;;;;;;;;6177286;28;20483;-86
2024/03/23 16:40:25;;;;;;;2.63;1.10;;;;;;;;;;6196069;28;20100;-86
2024/03/23 16:43:27;;;;;;;2.35;0.93;;;;;;;;;;6171188;28;20050;-85
2024/03/23 16:46:28;;;;;;;1.55;1.00;;;;;;;;;;6163888;28;20467;-85
2024/03/23 16:49:29;;;;;;;3.45;0.95;;;;;;;;;;6160911;28;20048;-85
2024/03/23 16:52:29;;;;;;;3.67;1.20;;;;;;;;;;6170370;28;20073;-85
2024/03/23 16:55:36;;;;;;;5.80;1.77;;;;;;;;;;6161600;28;20058;-89
2024/03/23 16:58:39;;;;;;;9.48;5.55;;;;;;;;;;6145972;28;20131;-86
2024/03/23 17:01:41;;;;;;;9.57;5.95;;;;;;;;;;6191884;28;20069;-86
2024/03/23 17:04:44;;;;;;;1.70;1.10;;;;;;;;;;6166786;28;20050;-86
2024/03/23 17:07:45;;;;;;;3.45;1.10;;;;;;;;;;6179704;28;20558;-85
2024/03/23 17:10:46;;;;;;;2.22;1.33;;;;;;;;;;6165030;28;20813;-84
2024/03/23 17:13:55;;;;;;;2.33;1.60;;;;;;;;;;6164099;28;20400;-83
2024/03/23 17:16:56;;;;;;;2.55;1.10;;;;;;;;;;6182782;28;20099;-85
2024/03/23 17:20:02;;;;;;;1.13;0.90;;;;;;;;;;6177248;28;20042;-85
2024/03/23 17:23:05;;;;;;;4.35;1.20;;;;;;;;;;6181749;28;21497;-85
2024/03/23 17:26:06;;;;;;;3.03;1.23;;;;;;;;;;6171103;28;20053;-85
2024/03/23 17:29:07;;;;;;;4.38;2.35;;;;;;;;;;6186999;28;20109;-85
2024/03/23 17:32:09;;;;;;;3.47;1.83;;;;;;;;;;6161520;28;20046;-85
2024/03/23 17:35:14;;;;;;;2.30;1.50;;;;;;;;;;6162301;28;20049;-86
2024/03/23 17:38:15;;;;;;;5.45;1.45;;;;;;;;;;6161559;28;20865;-85
2024/03/23 17:41:16;;;;;;;3.42;1.52;;;;;;;;;;6163424;28;20039;-85
2024/03/23 17:44:16;;;;;;;3.40;1.85;;;;;;;;;;6162816;28;20125;-85
2024/03/23 17:47:17;;;;;;;4.93;1.92;;;;;;;;;;6182906;28;20046;-85
2024/03/23 17:50:18;;;;;;;4.28;1.55;;;;;;;;;;6163681;28;20479;-84
2024/03/23 17:53:19;;;;;;;5.90;2.80;;;;;;;;;;6165655;28;20526;-85
2024/03/23 17:56:20;;;;;;;1.88;1.38;;;;;;;;;;6161255;28;20050;-85
2024/03/23 17:59:21;;;;;;;3.38;1.73;;;;;;;;;;6146163;28;20076;-86
2024/03/23 18:02:22;;;;;;;2.00;1.10;;;;;;;;;;6150371;28;20046;-84